createdAt,value
2023-04-02T00:02:34.194Z,5.04
2023-04-02T00:05:34.444Z,5.14
2023-04-02T00:08:35.115Z,5.16
2023-04-02T00:11:36.043Z,5.30
2023-04-02T00:14:36.998Z,5.61
2023-04-02T00:17:26.195Z,5.76
2023-04-02T00:20:16.963Z,5.87
2023-04-02T00:22:56.633Z,5.97
2023-04-02T00:25:45.549Z,6.18
2023-04-02T00:28:30.362Z,6.29
2023-04-02T00:31:18.349Z,6.41
2023-04-02T00:34:05.301Z,6.59
2023-04-02T00:36:54.391Z,6.71
2023-04-02T00:39:45.876Z,6.76
2023-04-02T00:42:27.405Z,6.88
2023-04-02T00:45:20.823Z,6.92
2023-04-02T00:48:02.901Z,6.83
2023-04-02T00:51:23.215Z,6.70
2023-04-02T00:54:04.264Z,6.84
2023-04-02T00:56:49.121Z,6.81
2023-04-02T00:59:50.827Z,6.71
2023-04-02T01:02:45.443Z,6.89
2023-04-02T01:05:35.587Z,7.10
2023-04-02T01:08:37.799Z,7.12
2023-04-02T01:11:33.961Z,7.06
2023-04-02T01:14:36.874Z,7.07
2023-04-02T01:17:35.505Z,7.01
2023-04-02T01:20:39.236Z,6.81
2023-04-02T01:23:47.776Z,6.85
2023-04-02T01:27:01.117Z,6.96
2023-04-02T01:29:49.517Z,6.96
2023-04-02T01:32:34.719Z,6.93
2023-04-02T01:35:22.549Z,6.92
2023-04-02T01:38:39.501Z,6.96
2023-04-02T01:41:47.697Z,6.79
2023-04-02T01:44:47.485Z,6.81
2023-04-02T01:47:28.242Z,6.60
2023-04-02T01:50:54.408Z,6.27
2023-04-02T01:53:41.021Z,6.21
2023-04-02T01:56:21.896Z,6.07
2023-04-02T01:59:00.634Z,5.98
2023-04-02T02:02:07.921Z,5.99
2023-04-02T02:04:48.808Z,5.86
2023-04-02T02:07:32.083Z,5.78
2023-04-02T02:10:12.483Z,5.77
2023-04-02T02:13:03.745Z,5.93
2023-04-02T02:16:03.594Z,5.86
2023-04-02T02:18:41.570Z,5.93
2023-04-02T02:21:40.686Z,5.87
2023-04-02T02:24:32.343Z,5.94
2023-04-02T02:27:30.739Z,6.03
2023-04-02T02:30:25.267Z,6.19
2023-04-02T02:33:17.517Z,6.08
2023-04-02T02:36:08.441Z,5.95
2023-04-02T02:39:02.442Z,5.95
2023-04-02T02:41:52.661Z,5.88
2023-04-02T02:45:05.406Z,5.79
2023-04-02T02:47:57.141Z,5.76
2023-04-02T02:50:38.440Z,5.77
2023-04-02T02:53:31.028Z,5.70
2023-04-02T02:56:12.449Z,5.69
2023-04-02T02:59:00.441Z,5.74
2023-04-02T03:01:46.793Z,5.65
2023-04-02T03:04:35.842Z,5.51
2023-04-02T03:07:17.227Z,5.52
2023-04-02T03:10:05.787Z,5.66
2023-04-02T03:13:07.180Z,5.66
2023-04-02T03:16:10.916Z,5.69
2023-04-02T03:18:52.682Z,5.62
2023-04-02T03:21:31.426Z,5.64
2023-04-02T03:24:14.271Z,5.82
2023-04-02T03:27:17.030Z,5.82
2023-04-02T03:30:34.049Z,5.75
2023-04-02T03:33:32.835Z,5.70
2023-04-02T03:36:32.388Z,5.64
2023-04-02T03:39:42.398Z,5.75
2023-04-02T03:42:26.318Z,5.72
2023-04-02T03:45:31.276Z,5.51
2023-04-02T03:48:29.592Z,5.63
2023-04-02T03:51:18.005Z,5.72
2023-04-02T03:54:02.008Z,5.57
2023-04-02T03:56:52.782Z,5.70
2023-04-02T03:59:42.517Z,5.69
2023-04-02T04:02:45.605Z,5.58
2023-04-02T04:05:37.398Z,5.61
2023-04-02T04:08:51.923Z,5.43
2023-04-02T04:11:33.600Z,5.25
2023-04-02T04:14:44.039Z,5.20
2023-04-02T04:17:37.113Z,5.39
2023-04-02T04:21:05.235Z,5.50
2023-04-02T04:24:13.896Z,5.32
2023-04-02T04:27:17.509Z,5.28
2023-04-02T04:30:22.040Z,5.43
2023-04-02T04:33:15.534Z,5.58
2023-04-02T04:36:20.596Z,5.71
2023-04-02T04:39:07.990Z,5.83
2023-04-02T04:41:51.231Z,5.88
2023-04-02T04:44:59.342Z,6.01
2023-04-02T04:47:57.521Z,6.14
2023-04-02T04:50:55.174Z,6.25
2023-04-02T04:53:40.563Z,6.44
2023-04-02T04:56:21.731Z,6.61
2023-04-02T04:59:22.961Z,6.59
2023-04-02T05:02:54.922Z,6.40
2023-04-02T05:05:40.398Z,6.25
2023-04-02T05:08:39.607Z,6.09
2023-04-02T05:12:15.716Z,6.06
2023-04-02T05:15:25.578Z,5.92
2023-04-02T05:18:30.291Z,5.98
2023-04-02T05:21:22.186Z,5.98
2023-04-02T05:24:36.196Z,6.15
2023-04-02T05:30:32.621Z,6.62
2023-04-02T05:33:24.134Z,6.99
2023-04-02T05:36:09.478Z,7.21
2023-04-02T05:39:00.387Z,7.69
2023-04-02T05:42:06.484Z,8.20
2023-04-02T05:45:11.958Z,8.61
2023-04-02T05:48:02.202Z,9.20
2023-04-02T05:50:53.160Z,9.66
2023-04-02T05:54:23.392Z,10.26
2023-04-02T05:57:19.349Z,10.51
2023-04-02T06:00:05.752Z,10.72
2023-04-02T06:03:02.046Z,11.02
2023-04-02T06:05:56.413Z,11.27
2023-04-02T06:09:03.940Z,11.19
2023-04-02T06:12:02.717Z,11.54
2023-04-02T06:14:48.181Z,11.79
2023-04-02T06:17:27.445Z,12.05
2023-04-02T06:20:24.328Z,12.01
2023-04-02T06:23:35.341Z,12.23
2023-04-02T06:26:40.519Z,12.43
2023-04-02T06:29:27.571Z,12.43
2023-04-02T06:32:08.701Z,12.66
2023-04-02T06:35:01.413Z,13.06
2023-04-02T06:38:06.228Z,13.11
2023-04-02T06:41:01.856Z,13.12
2023-04-02T06:44:00.561Z,13.42
2023-04-02T06:47:20.138Z,13.60
2023-04-02T06:50:22.542Z,13.16
2023-04-02T06:53:09.374Z,13.42
2023-04-02T06:55:56.817Z,13.64
2023-04-02T06:58:40.263Z,13.45
2023-04-02T07:01:29.165Z,13.83
2023-04-02T07:04:08.516Z,13.99
2023-04-02T07:06:59.229Z,14.24
2023-04-02T07:09:51.490Z,14.03
2023-04-02T07:12:46.896Z,14.58
2023-04-02T07:15:28.482Z,14.56
2023-04-02T07:18:28.831Z,14.21
2023-04-02T07:21:11.515Z,13.94
2023-04-02T07:24:01.319Z,13.87
2023-04-02T07:26:52.737Z,13.41
2023-04-02T07:29:33.603Z,13.99
2023-04-02T07:32:30.148Z,13.52
2023-04-02T07:35:18.495Z,13.93
2023-04-02T07:38:04.234Z,13.92
2023-04-02T07:40:42.593Z,14.06
2023-04-02T07:43:23.265Z,14.36
2023-04-02T07:46:08.169Z,14.72
2023-04-02T07:48:59.829Z,15.00
2023-04-02T07:51:44.066Z,15.25
2023-04-02T07:54:30.502Z,14.64
2023-04-02T07:57:06.337Z,14.21
2023-04-02T07:59:50.014Z,13.85
2023-04-02T08:02:35.544Z,13.63
2023-04-02T08:05:19.690Z,13.27
2023-04-02T08:08:03.258Z,12.75
2023-04-02T08:10:50.017Z,12.98
2023-04-02T08:13:38.121Z,12.81
2023-04-02T08:16:23.952Z,12.92
2023-04-02T08:19:01.810Z,13.29
2023-04-02T08:21:48.152Z,13.63
2023-04-02T08:24:32.725Z,14.08
2023-04-02T08:27:16.314Z,14.46
2023-04-02T08:30:02.601Z,15.03
2023-04-02T08:32:45.758Z,14.97
2023-04-02T08:35:26.555Z,14.79
2023-04-02T08:38:09.956Z,14.65
2023-04-02T08:40:59.409Z,14.84
2023-04-02T08:44:14.350Z,14.76
2023-04-02T08:47:06.906Z,15.12
2023-04-02T08:50:10.919Z,15.43
2023-04-02T08:52:54.756Z,15.60
2023-04-02T08:55:48.820Z,15.61
2023-04-02T08:58:38.959Z,15.90
2023-04-02T09:01:37.202Z,15.94
2023-04-02T09:04:27.308Z,15.97
2023-04-02T09:07:08.131Z,15.83
2023-04-02T09:10:01.058Z,15.79
2023-04-02T09:12:54.398Z,15.77
2023-04-02T09:15:58.243Z,15.82
2023-04-02T09:18:44.494Z,16.02
2023-04-02T09:21:50.790Z,16.23
2023-04-02T09:24:40.472Z,16.64
2023-04-02T09:27:29.568Z,16.76
2023-04-02T09:30:22.997Z,16.33
2023-04-02T09:33:08.247Z,17.06
2023-04-02T09:36:06.575Z,17.27
2023-04-02T09:38:58.138Z,17.39
2023-04-02T09:41:39.137Z,16.65
2023-04-02T09:44:30.594Z,16.55
2023-04-02T09:47:12.049Z,16.17
2023-04-02T09:49:56.498Z,16.35
2023-04-02T09:52:43.248Z,16.46
2023-04-02T09:55:39.434Z,16.57
2023-04-02T09:58:31.078Z,16.64
2023-04-02T10:01:11.726Z,16.78
2023-04-02T10:03:59.661Z,16.57
2023-04-02T10:07:02.423Z,16.82
2023-04-02T10:09:49.110Z,16.68
2023-04-02T10:12:20.965Z,16.55
2023-04-02T10:15:08.957Z,16.65
2023-04-02T10:18:00.324Z,16.40
2023-04-02T10:20:50.895Z,16.37
2023-04-02T10:23:42.485Z,16.59
2023-04-02T10:26:46.914Z,16.62
2023-04-02T10:30:02.564Z,16.96
2023-04-02T10:32:55.098Z,16.82
2023-04-02T10:35:54.625Z,16.52
2023-04-02T10:38:45.687Z,17.13
2023-04-02T10:41:49.007Z,17.34
2023-04-02T10:44:57.188Z,17.30
2023-04-02T10:47:51.763Z,17.29
2023-04-02T10:50:52.402Z,17.15
2023-04-02T10:53:43.234Z,17.03
2023-04-02T10:56:40.813Z,17.31
2023-04-02T10:59:37.475Z,17.75
2023-04-02T11:02:52.269Z,17.71
2023-04-02T11:05:59.969Z,18.10
2023-04-02T11:08:49.666Z,18.18
2023-04-02T11:11:35.036Z,18.02
2023-04-02T11:14:33.767Z,18.00
2023-04-02T11:17:24.844Z,17.62
2023-04-02T11:20:33.284Z,18.18
2023-04-02T11:23:40.395Z,18.28
2023-04-02T11:26:40.370Z,18.00
2023-04-02T11:29:33.249Z,17.71
2023-04-02T11:32:46.240Z,17.70
2023-04-02T11:35:43.119Z,18.15
2023-04-02T11:38:57.614Z,18.00
2023-04-02T11:42:35.866Z,17.97
2023-04-02T11:45:53.407Z,18.23
2023-04-02T11:48:44.931Z,18.08
2023-04-02T11:51:54.373Z,18.48
2023-04-02T11:54:44.338Z,18.27
2023-04-02T11:57:37.215Z,18.42
2023-04-02T12:00:36.661Z,18.31
2023-04-02T12:03:21.949Z,18.21
2023-04-02T12:06:16.427Z,18.00
2023-04-02T12:09:20.385Z,17.85
2023-04-02T12:12:05.525Z,17.94
2023-04-02T12:15:32.901Z,18.08
2023-04-02T12:18:19.385Z,18.55
2023-04-02T12:21:01.217Z,18.35
2023-04-02T12:23:55.246Z,18.27
2023-04-02T12:26:43.476Z,18.20
2023-04-02T12:29:39.377Z,18.44
2023-04-02T12:32:31.217Z,18.32
2023-04-02T12:35:27.141Z,18.34
2023-04-02T12:38:03.341Z,17.82
2023-04-02T12:41:01.652Z,17.83
2023-04-02T12:43:45.555Z,17.72
2023-04-02T12:46:32.226Z,17.81
2023-04-02T12:49:22.188Z,18.28
2023-04-02T12:52:05.176Z,17.97
2023-04-02T12:55:02.630Z,18.34
2023-04-02T12:57:52.802Z,17.79
2023-04-02T13:00:47.151Z,17.45
2023-04-02T13:03:27.261Z,17.96
2023-04-02T13:06:23.461Z,17.93
2023-04-02T13:09:04.835Z,18.15
2023-04-02T13:11:44.760Z,18.07
2023-04-02T13:14:29.632Z,17.88
2023-04-02T13:17:37.971Z,18.50
2023-04-02T13:21:00.198Z,18.69
2023-04-02T13:23:35.972Z,18.59
2023-04-02T13:26:33.169Z,17.94
2023-04-02T13:29:29.771Z,18.19
2023-04-02T13:32:18.392Z,18.58
2023-04-02T13:34:56.909Z,18.69
2023-04-02T13:37:40.603Z,18.70
2023-04-02T13:40:26.712Z,18.37
2023-04-02T13:43:29.592Z,18.30
2023-04-02T13:46:26.512Z,18.44
2023-04-02T13:49:25.788Z,18.03
2023-04-02T13:52:16.011Z,18.36
2023-04-02T13:55:07.448Z,18.38
2023-04-02T13:57:51.169Z,19.05
2023-04-02T14:00:44.745Z,19.09
2023-04-02T14:03:29.250Z,19.50
2023-04-02T14:06:25.807Z,19.46
2023-04-02T14:09:27.145Z,18.73
2023-04-02T14:12:24.164Z,17.28
2023-04-02T14:15:41.213Z,15.55
2023-04-02T14:18:36.005Z,15.16
2023-04-02T14:21:41.345Z,14.36
2023-04-02T14:24:53.079Z,13.53
2023-04-02T14:28:05.124Z,13.30
2023-04-02T14:30:58.950Z,13.02
2023-04-02T14:34:24.544Z,12.94
2023-04-02T14:37:39.862Z,13.09
2023-04-02T14:40:24.601Z,13.13
2023-04-02T14:43:15.569Z,13.30
2023-04-02T14:46:19.648Z,12.71
2023-04-02T14:49:21.099Z,12.56
2023-04-02T14:52:17.243Z,12.54
2023-04-02T14:55:03.602Z,12.60
2023-04-02T14:57:56.538Z,12.37
2023-04-02T15:00:53.145Z,12.57
2023-04-02T15:03:29.763Z,12.71
2023-04-02T15:06:13.546Z,12.71
2023-04-02T15:09:09.324Z,12.64
2023-04-02T15:12:21.266Z,12.32
2023-04-02T15:15:40.540Z,12.48
2023-04-02T15:18:37.160Z,12.61
2023-04-02T15:22:08.094Z,12.04
2023-04-02T15:25:03.971Z,12.24
2023-04-02T15:28:08.685Z,12.27
2023-04-02T15:30:56.177Z,12.25
2023-04-02T15:33:57.009Z,12.21
2023-04-02T15:36:50.124Z,12.26
2023-04-02T15:39:53.809Z,12.35
2023-04-02T15:42:51.264Z,12.41
2023-04-02T15:45:55.593Z,12.53
2023-04-02T15:48:56.343Z,12.56
2023-04-02T15:52:01.401Z,12.58
2023-04-02T15:55:21.696Z,12.33
2023-04-02T15:58:13.915Z,12.36
2023-04-02T16:01:22.100Z,12.26
2023-04-02T16:04:31.507Z,12.20
2023-04-02T16:07:15.326Z,12.14
2023-04-02T16:10:41.206Z,12.01
2023-04-02T16:13:42.199Z,12.04
2023-04-02T16:16:37.196Z,12.10
2023-04-02T16:19:58.150Z,12.23
2023-04-02T16:23:00.865Z,12.45
2023-04-02T16:26:13.223Z,12.97
2023-04-02T16:29:15.019Z,14.88
2023-04-02T16:32:09.979Z,16.84
2023-04-02T16:35:43.312Z,16.84
2023-04-02T16:38:46.337Z,18.02
2023-04-02T16:41:58.565Z,18.25
2023-04-02T16:45:08.936Z,17.92
2023-04-02T16:48:52.155Z,16.69
2023-04-02T16:55:40.097Z,14.54
2023-04-02T16:58:59.669Z,14.18
2023-04-02T17:02:02.424Z,13.74
2023-04-02T17:05:09.861Z,13.29
2023-04-02T17:08:05.734Z,13.22
2023-04-02T17:11:08.587Z,12.92
2023-04-02T17:14:10.960Z,12.66
2023-04-02T17:16:55.936Z,12.46
2023-04-02T17:19:48.525Z,12.24
2023-04-02T17:22:34.643Z,12.07
2023-04-02T17:25:25.134Z,11.92
2023-04-02T17:28:16.317Z,11.73
2023-04-02T17:31:05.944Z,11.68
2023-04-02T17:33:47.418Z,11.54
2023-04-02T17:37:00.011Z,11.16
2023-04-02T17:39:53.825Z,11.40
2023-04-02T17:43:30.878Z,11.38
2023-04-02T17:47:00.244Z,11.29
2023-04-02T17:50:27.814Z,11.35
2023-04-02T17:53:39.555Z,11.15
2023-04-02T17:56:38.364Z,11.04
2023-04-02T17:59:37.886Z,10.99
2023-04-02T18:02:51.878Z,10.99
2023-04-02T18:05:56.778Z,10.99
2023-04-02T18:09:03.309Z,10.83
2023-04-02T18:12:02.814Z,10.70
2023-04-02T18:15:12.717Z,10.57
2023-04-02T18:18:12.821Z,10.67
2023-04-02T18:21:15.268Z,10.56
2023-04-02T18:24:23.081Z,10.59
2023-04-02T18:27:04.637Z,10.57
2023-04-02T18:30:24.749Z,10.59
2023-04-02T18:33:45.412Z,10.70
2023-04-02T18:36:51.210Z,10.70
2023-04-02T18:39:54.411Z,10.72
2023-04-02T18:42:48.097Z,10.84
2023-04-02T18:45:41.422Z,10.71
2023-04-02T18:48:39.020Z,10.77
2023-04-02T18:51:37.495Z,10.84
2023-04-02T18:54:18.020Z,10.94
2023-04-02T18:57:00.495Z,10.70
2023-04-02T18:59:57.327Z,10.70
2023-04-02T19:02:57.246Z,10.54
2023-04-02T19:05:56.624Z,10.45
2023-04-02T19:08:51.060Z,10.32
2023-04-02T19:11:33.782Z,10.25
2023-04-02T19:14:18.667Z,10.17
2023-04-02T19:17:43.096Z,10.03
2023-04-02T19:21:03.038Z,9.98
2023-04-02T19:24:00.459Z,10.05
2023-04-02T19:26:53.551Z,9.98
2023-04-02T19:30:02.271Z,10.09
2023-04-02T19:33:09.235Z,10.03
2023-04-02T19:36:19.181Z,9.99
2023-04-02T19:39:11.173Z,9.94
2023-04-02T19:42:10.229Z,10.01
2023-04-02T19:44:55.488Z,10.06
2023-04-02T19:47:38.567Z,10.05
2023-04-02T19:50:22.101Z,10.07
2023-04-02T19:53:04.102Z,10.06
2023-04-02T19:55:46.636Z,9.92
2023-04-02T19:58:37.940Z,9.87
2023-04-02T20:01:24.204Z,9.87
2023-04-02T20:04:11.076Z,9.82
2023-04-02T20:06:52.006Z,9.76
2023-04-02T20:09:39.026Z,9.72
2023-04-02T20:12:25.568Z,9.73
2023-04-02T20:15:16.451Z,9.80
2023-04-02T20:18:01.725Z,9.85
2023-04-02T20:20:40.389Z,9.77
2023-04-02T20:23:22.170Z,9.68
2023-04-02T20:26:05.980Z,9.71
2023-04-02T20:28:46.697Z,9.77
2023-04-02T20:31:27.540Z,9.65
2023-04-02T20:34:09.327Z,9.56
2023-04-02T20:36:53.799Z,9.51
2023-04-02T20:39:40.679Z,9.29
2023-04-02T20:42:24.933Z,9.33
2023-04-02T20:45:10.739Z,9.21
2023-04-02T20:47:49.165Z,9.10
2023-04-02T20:50:48.180Z,8.90
2023-04-02T20:53:31.856Z,8.77
2023-04-02T20:56:29.605Z,8.59
2023-04-02T20:59:06.676Z,8.42
2023-04-02T21:01:53.883Z,8.25
2023-04-02T21:04:42.063Z,8.09
2023-04-02T21:07:26.161Z,7.96
2023-04-02T21:10:04.112Z,7.93
2023-04-02T21:12:52.544Z,7.86
2023-04-02T21:15:45.920Z,7.92
2023-04-02T21:18:26.547Z,7.91
2023-04-02T21:21:31.477Z,7.79
2023-04-02T21:24:14.158Z,7.67
2023-04-02T21:26:59.337Z,7.76
2023-04-02T21:29:49.121Z,7.95
2023-04-02T21:32:38.591Z,7.97
2023-04-02T21:35:25.132Z,7.98
2023-04-02T21:38:14.988Z,7.96
2023-04-02T21:41:01.390Z,8.03
2023-04-02T21:43:44.654Z,8.03
2023-04-02T21:46:25.953Z,8.01
2023-04-02T21:49:08.536Z,8.05
2023-04-02T21:51:51.414Z,7.96
2023-04-02T21:54:32.206Z,8.04
2023-04-02T21:57:19.306Z,8.03
2023-04-02T22:00:00.985Z,7.93
2023-04-02T22:02:41.953Z,7.85
2023-04-02T22:05:32.177Z,7.94
2023-04-02T22:08:24.526Z,7.82
2023-04-02T22:11:18.165Z,7.82
2023-04-02T22:14:10.442Z,7.75
2023-04-02T22:16:54.573Z,7.68
2023-04-02T22:19:48.095Z,7.53
2023-04-02T22:22:34.717Z,7.35
2023-04-02T22:25:16.142Z,7.45
2023-04-02T22:27:57.113Z,7.35
2023-04-02T22:30:42.930Z,7.26
2023-04-02T22:33:31.644Z,7.23
2023-04-02T22:36:15.543Z,7.20
2023-04-02T22:39:07.081Z,7.22
2023-04-02T22:41:47.872Z,7.20
2023-04-02T22:44:30.621Z,7.07
2023-04-02T22:47:19.118Z,6.98
2023-04-02T22:50:05.534Z,7.11
2023-04-02T22:52:49.803Z,6.98
2023-04-02T22:55:46.315Z,6.97
2023-04-02T22:58:31.603Z,6.89
2023-04-02T23:01:26.549Z,6.93
2023-04-02T23:04:23.648Z,6.87
2023-04-02T23:07:07.352Z,6.88
2023-04-02T23:09:49.526Z,6.87
2023-04-02T23:12:30.099Z,6.76
2023-04-02T23:15:11.783Z,6.69
2023-04-02T23:17:57.230Z,6.62
2023-04-02T23:20:46.593Z,6.67
2023-04-02T23:23:35.033Z,6.70
2023-04-02T23:26:33.111Z,6.73
2023-04-02T23:29:11.781Z,6.65
2023-04-02T23:31:55.085Z,6.71
2023-04-02T23:34:33.523Z,6.60
2023-04-02T23:37:20.463Z,6.53
2023-04-02T23:40:09.781Z,6.56
2023-04-02T23:42:53.526Z,6.66
2023-04-02T23:45:42.267Z,6.61
2023-04-02T23:48:28.441Z,6.54
2023-04-02T23:51:14.445Z,6.57
2023-04-02T23:53:50.920Z,6.37
2023-04-02T23:56:32.130Z,6.57
2023-04-02T23:59:12.312Z,6.56
